sensor_id;sensor_type;location;lat;lon;timestamp;P1;durP1;ratioP1;P2;durP2;ratioP2
66093;SDS011;52876;49.394;10.892;2023-02-13T00:01:14;99.47;;;51.60;;
66093;SDS011;52876;49.394;10.892;2023-02-13T00:03:45;81.30;;;47.10;;
66093;SDS011;52876;49.394;10.892;2023-02-13T00:06:12;73.30;;;44.50;;
66093;SDS011;52876;49.394;10.892;2023-02-13T00:08:38;63.27;;;37.93;;
66093;SDS011;52876;49.394;10.892;2023-02-13T00:11:06;60.57;;;38.93;;
66093;SDS011;52876;49.394;10.892;2023-02-13T00:13:32;67.20;;;38.07;;
66093;SDS011;52876;49.394;10.892;2023-02-13T00:15:59;70.73;;;40.27;;
66093;SDS011;52876;49.394;10.892;2023-02-13T00:18:26;64.87;;;37.27;;
66093;SDS011;52876;49.394;10.892;2023-02-13T00:20:58;48.63;;;30.00;;
66093;SDS011;52876;49.394;10.892;2023-02-13T00:23:25;64.53;;;36.73;;
66093;SDS011;52876;49.394;10.892;2023-02-13T00:25:51;75.10;;;43.30;;
66093;SDS011;52876;49.394;10.892;2023-02-13T00:28:17;67.80;;;38.00;;
66093;SDS011;52876;49.394;10.892;2023-02-13T00:30:45;38.93;;;26.93;;
66093;SDS011;52876;49.394;10.892;2023-02-13T00:33:11;50.47;;;29.90;;
66093;SDS011;52876;49.394;10.892;2023-02-13T00:35:37;40.40;;;27.83;;
66093;SDS011;52876;49.394;10.892;2023-02-13T00:38:05;48.90;;;29.67;;
66093;SDS011;52876;49.394;10.892;2023-02-13T00:40:30;47.87;;;30.37;;
66093;SDS011;52876;49.394;10.892;2023-02-13T00:42:57;49.03;;;28.23;;
66093;SDS011;52876;49.394;10.892;2023-02-13T00:45:23;47.40;;;27.20;;
66093;SDS011;52876;49.394;10.892;2023-02-13T00:47:49;42.37;;;26.10;;
66093;SDS011;52876;49.394;10.892;2023-02-13T00:50:17;42.30;;;26.47;;
66093;SDS011;52876;49.394;10.892;2023-02-13T00:52:44;41.63;;;25.80;;
66093;SDS011;52876;49.394;10.892;2023-02-13T00:55:11;50.87;;;28.93;;
66093;SDS011;52876;49.394;10.892;2023-02-13T01:01:00;43.37;;;26.47;;
66093;SDS011;52876;49.394;10.892;2023-02-13T01:03:26;36.60;;;24.43;;
66093;SDS011;52876;49.394;10.892;2023-02-13T01:05:54;42.00;;;25.50;;
66093;SDS011;52876;49.394;10.892;2023-02-13T01:08:21;39.77;;;24.83;;
66093;SDS011;52876;49.394;10.892;2023-02-13T01:10:50;43.50;;;26.53;;
66093;SDS011;52876;49.394;10.892;2023-02-13T01:13:16;43.03;;;27.40;;
66093;SDS011;52876;49.394;10.892;2023-02-13T01:15:44;36.03;;;25.37;;
66093;SDS011;52876;49.394;10.892;2023-02-13T01:18:11;41.97;;;27.90;;
66093;SDS011;52876;49.394;10.892;2023-02-13T01:20:37;46.20;;;28.67;;
66093;SDS011;52876;49.394;10.892;2023-02-13T01:23:03;47.83;;;29.00;;
66093;SDS011;52876;49.394;10.892;2023-02-13T01:25:29;42.30;;;26.73;;
66093;SDS011;52876;49.394;10.892;2023-02-13T01:27:57;43.17;;;26.93;;
66093;SDS011;52876;49.394;10.892;2023-02-13T01:30:23;45.93;;;29.63;;
66093;SDS011;52876;49.394;10.892;2023-02-13T01:32:49;43.93;;;29.03;;
66093;SDS011;52876;49.394;10.892;2023-02-13T01:35:16;49.30;;;30.40;;
66093;SDS011;52876;49.394;10.892;2023-02-13T01:37:44;49.07;;;30.30;;
66093;SDS011;52876;49.394;10.892;2023-02-13T01:40:11;56.67;;;32.63;;
66093;SDS011;52876;49.394;10.892;2023-02-13T01:42:39;58.13;;;32.60;;
66093;SDS011;52876;49.394;10.892;2023-02-13T01:45:16;58.60;;;32.07;;
66093;SDS011;52876;49.394;10.892;2023-02-13T01:47:47;52.30;;;31.40;;
66093;SDS011;52876;49.394;10.892;2023-02-13T01:50:16;52.40;;;32.23;;
66093;SDS011;52876;49.394;10.892;2023-02-13T01:52:46;46.33;;;28.13;;
66093;SDS011;52876;49.394;10.892;2023-02-13T01:55:15;53.43;;;29.63;;
66093;SDS011;52876;49.394;10.892;2023-02-13T01:57:43;49.93;;;28.77;;
66093;SDS011;52876;49.394;10.892;2023-02-13T02:00:18;50.53;;;28.20;;
66093;SDS011;52876;49.394;10.892;2023-02-13T02:02:47;44.33;;;26.93;;
66093;SDS011;52876;49.394;10.892;2023-02-13T02:05:15;50.30;;;27.83;;
66093;SDS011;52876;49.394;10.892;2023-02-13T02:07:45;58.50;;;31.47;;
66093;SDS011;52876;49.394;10.892;2023-02-13T02:10:13;46.93;;;30.43;;
66093;SDS011;52876;49.394;10.892;2023-02-13T02:12:45;49.00;;;30.80;;
66093;SDS011;52876;49.394;10.892;2023-02-13T02:15:14;41.37;;;27.33;;
66093;SDS011;52876;49.394;10.892;2023-02-13T02:17:43;59.87;;;34.80;;
66093;SDS011;52876;49.394;10.892;2023-02-13T02:20:13;50.15;;;29.45;;
66093;SDS011;52876;49.394;10.892;2023-02-13T02:22:54;51.93;;;30.10;;
66093;SDS011;52876;49.394;10.892;2023-02-13T02:25:49;52.30;;;29.40;;
66093;SDS011;52876;49.394;10.892;2023-02-13T02:28:49;46.17;;;27.67;;
66093;SDS011;52876;49.394;10.892;2023-02-13T02:31:48;47.05;;;26.80;;
66093;SDS011;52876;49.394;10.892;2023-02-13T02:34:40;41.67;;;26.48;;
66093;SDS011;52876;49.394;10.892;2023-02-13T02:37:22;45.47;;;26.37;;
66093;SDS011;52876;49.394;10.892;2023-02-13T02:39:57;34.83;;;21.35;;
66093;SDS011;52876;49.394;10.892;2023-02-13T02:42:38;50.07;;;29.70;;
66093;SDS011;52876;49.394;10.892;2023-02-13T02:45:10;50.73;;;28.40;;
66093;SDS011;52876;49.394;10.892;2023-02-13T02:47:49;52.13;;;28.63;;
66093;SDS011;52876;49.394;10.892;2023-02-13T02:50:25;35.30;;;22.07;;
66093;SDS011;52876;49.394;10.892;2023-02-13T02:53:02;47.17;;;27.53;;
66093;SDS011;52876;49.394;10.892;2023-02-13T02:55:35;50.43;;;28.80;;
66093;SDS011;52876;49.394;10.892;2023-02-13T02:58:08;52.87;;;30.67;;
66093;SDS011;52876;49.394;10.892;2023-02-13T03:00:38;40.23;;;26.63;;
66093;SDS011;52876;49.394;10.892;2023-02-13T03:03:17;42.73;;;26.17;;
66093;SDS011;52876;49.394;10.892;2023-02-13T03:05:45;48.43;;;28.33;;
66093;SDS011;52876;49.394;10.892;2023-02-13T03:08:13;48.70;;;29.47;;
66093;SDS011;52876;49.394;10.892;2023-02-13T03:10:39;42.70;;;27.63;;
66093;SDS011;52876;49.394;10.892;2023-02-13T03:13:06;39.43;;;24.93;;
66093;SDS011;52876;49.394;10.892;2023-02-13T03:15:40;46.93;;;27.63;;
66093;SDS011;52876;49.394;10.892;2023-02-13T03:18:09;48.00;;;28.27;;
66093;SDS011;52876;49.394;10.892;2023-02-13T03:20:43;40.97;;;26.63;;
66093;SDS011;52876;49.394;10.892;2023-02-13T03:23:12;45.57;;;25.77;;
66093;SDS011;52876;49.394;10.892;2023-02-13T03:25:47;38.97;;;24.33;;
66093;SDS011;52876;49.394;10.892;2023-02-13T03:28:21;44.03;;;23.17;;
66093;SDS011;52876;49.394;10.892;2023-02-13T03:30:55;42.90;;;24.40;;
66093;SDS011;52876;49.394;10.892;2023-02-13T03:33:38;37.40;;;21.57;;
66093;SDS011;52876;49.394;10.892;2023-02-13T03:36:18;27.53;;;18.70;;
66093;SDS011;52876;49.394;10.892;2023-02-13T03:38:55;26.13;;;16.63;;
66093;SDS011;52876;49.394;10.892;2023-02-13T03:41:29;29.97;;;19.70;;
66093;SDS011;52876;49.394;10.892;2023-02-13T03:44:02;32.87;;;21.30;;
66093;SDS011;52876;49.394;10.892;2023-02-13T03:46:36;29.20;;;19.93;;
66093;SDS011;52876;49.394;10.892;2023-02-13T03:49:05;31.10;;;19.97;;
66093;SDS011;52876;49.394;10.892;2023-02-13T03:51:37;34.10;;;20.70;;
66093;SDS011;52876;49.394;10.892;2023-02-13T03:54:10;27.73;;;18.53;;
66093;SDS011;52876;49.394;10.892;2023-02-13T03:56:42;26.63;;;18.30;;
66093;SDS011;52876;49.394;10.892;2023-02-13T03:59:11;36.30;;;22.08;;
66093;SDS011;52876;49.394;10.892;2023-02-13T04:01:43;27.07;;;19.30;;
66093;SDS011;52876;49.394;10.892;2023-02-13T04:04:16;31.40;;;19.50;;
66093;SDS011;52876;49.394;10.892;2023-02-13T04:06:49;40.57;;;23.23;;
66093;SDS011;52876;49.394;10.892;2023-02-13T04:09:18;45.63;;;21.63;;
66093;SDS011;52876;49.394;10.892;2023-02-13T04:11:47;121.97;;;34.10;;
66093;SDS011;52876;49.394;10.892;2023-02-13T04:14:19;106.53;;;28.90;;
66093;SDS011;52876;49.394;10.892;2023-02-13T04:16:50;52.70;;;24.37;;
66093;SDS011;52876;49.394;10.892;2023-02-13T04:19:21;53.57;;;24.13;;
66093;SDS011;52876;49.394;10.892;2023-02-13T04:21:53;48.30;;;26.13;;
66093;SDS011;52876;49.394;10.892;2023-02-13T04:24:21;57.08;;;32.95;;
66093;SDS011;52876;49.394;10.892;2023-02-13T04:26:47;67.07;;;36.70;;
66093;SDS011;52876;49.394;10.892;2023-02-13T04:29:13;63.67;;;36.22;;
66093;SDS011;52876;49.394;10.892;2023-02-13T04:31:41;72.72;;;38.50;;
66093;SDS011;52876;49.394;10.892;2023-02-13T04:34:07;64.38;;;34.30;;
66093;SDS011;52876;49.394;10.892;2023-02-13T04:36:35;47.22;;;26.88;;
66093;SDS011;52876;49.394;10.892;2023-02-13T04:39:03;48.70;;;27.33;;
66093;SDS011;52876;49.394;10.892;2023-02-13T04:41:28;38.70;;;24.40;;
66093;SDS011;52876;49.394;10.892;2023-02-13T04:43:54;39.63;;;24.13;;
66093;SDS011;52876;49.394;10.892;2023-02-13T04:46:20;41.67;;;26.50;;
66093;SDS011;52876;49.394;10.892;2023-02-13T04:48:47;44.43;;;25.47;;
66093;SDS011;52876;49.394;10.892;2023-02-13T04:51:13;39.00;;;24.13;;
66093;SDS011;52876;49.394;10.892;2023-02-13T04:53:39;48.85;;;26.77;;
66093;SDS011;52876;49.394;10.892;2023-02-13T04:56:06;50.75;;;30.67;;
66093;SDS011;52876;49.394;10.892;2023-02-13T04:58:32;68.00;;;41.83;;
66093;SDS011;52876;49.394;10.892;2023-02-13T05:00:58;50.45;;;32.53;;
66093;SDS011;52876;49.394;10.892;2023-02-13T05:03:25;40.95;;;26.50;;
66093;SDS011;52876;49.394;10.892;2023-02-13T05:05:52;43.15;;;24.30;;
66093;SDS011;52876;49.394;10.892;2023-02-13T05:08:18;32.70;;;20.53;;
66093;SDS011;52876;49.394;10.892;2023-02-13T05:10:46;37.65;;;23.15;;
66093;SDS011;52876;49.394;10.892;2023-02-13T05:13:14;39.40;;;22.25;;
66093;SDS011;52876;49.394;10.892;2023-02-13T05:15:39;37.33;;;22.75;;
66093;SDS011;52876;49.394;10.892;2023-02-13T05:18:05;40.20;;;22.60;;
66093;SDS011;52876;49.394;10.892;2023-02-13T05:20:32;38.08;;;22.67;;
66093;SDS011;52876;49.394;10.892;2023-02-13T05:22:58;43.17;;;26.40;;
66093;SDS011;52876;49.394;10.892;2023-02-13T05:25:24;36.10;;;23.08;;
66093;SDS011;52876;49.394;10.892;2023-02-13T05:27:50;38.28;;;23.48;;
66093;SDS011;52876;49.394;10.892;2023-02-13T05:30:17;33.28;;;20.77;;
66093;SDS011;52876;49.394;10.892;2023-02-13T05:32:45;34.93;;;21.63;;
66093;SDS011;52876;49.394;10.892;2023-02-13T05:35:11;56.03;;;26.83;;
66093;SDS011;52876;49.394;10.892;2023-02-13T05:37:38;99.55;;;32.65;;
66093;SDS011;52876;49.394;10.892;2023-02-13T05:40:05;56.43;;;27.13;;
66093;SDS011;52876;49.394;10.892;2023-02-13T05:42:33;53.75;;;28.00;;
66093;SDS011;52876;49.394;10.892;2023-02-13T05:44:59;38.90;;;23.92;;
66093;SDS011;52876;49.394;10.892;2023-02-13T05:47:27;35.05;;;23.00;;
66093;SDS011;52876;49.394;10.892;2023-02-13T05:49:53;46.53;;;23.58;;
66093;SDS011;52876;49.394;10.892;2023-02-13T05:52:19;60.78;;;31.17;;
66093;SDS011;52876;49.394;10.892;2023-02-13T05:54:45;83.22;;;35.10;;
66093;SDS011;52876;49.394;10.892;2023-02-13T05:57:11;65.35;;;30.90;;
66093;SDS011;52876;49.394;10.892;2023-02-13T05:59:37;110.70;;;39.88;;
66093;SDS011;52876;49.394;10.892;2023-02-13T06:02:03;108.70;;;42.35;;
66093;SDS011;52876;49.394;10.892;2023-02-13T06:04:31;61.38;;;31.45;;
66093;SDS011;52876;49.394;10.892;2023-02-13T06:06:58;53.92;;;29.90;;
66093;SDS011;52876;49.394;10.892;2023-02-13T06:09:24;146.15;;;54.65;;
66093;SDS011;52876;49.394;10.892;2023-02-13T06:11:50;90.28;;;42.22;;
66093;SDS011;52876;49.394;10.892;2023-02-13T06:14:16;135.05;;;46.35;;
66093;SDS011;52876;49.394;10.892;2023-02-13T06:16:42;160.48;;;46.38;;
66093;SDS011;52876;49.394;10.892;2023-02-13T06:19:08;160.60;;;43.50;;
66093;SDS011;52876;49.394;10.892;2023-02-13T06:21:35;138.27;;;39.80;;
66093;SDS011;52876;49.394;10.892;2023-02-13T06:24:01;137.00;;;40.20;;
66093;SDS011;52876;49.394;10.892;2023-02-13T06:26:29;124.40;;;41.60;;
66093;SDS011;52876;49.394;10.892;2023-02-13T06:28:55;128.07;;;42.17;;
66093;SDS011;52876;49.394;10.892;2023-02-13T06:31:21;95.90;;;39.03;;
66093;SDS011;52876;49.394;10.892;2023-02-13T06:33:47;100.95;;;37.00;;
66093;SDS011;52876;49.394;10.892;2023-02-13T06:36:14;95.28;;;39.67;;
66093;SDS011;52876;49.394;10.892;2023-02-13T06:38:41;61.90;;;28.17;;
66093;SDS011;52876;49.394;10.892;2023-02-13T06:41:08;58.88;;;30.67;;
66093;SDS011;52876;49.394;10.892;2023-02-13T06:43:34;58.80;;;29.85;;
66093;SDS011;52876;49.394;10.892;2023-02-13T06:46:03;91.20;;;35.30;;
66093;SDS011;52876;49.394;10.892;2023-02-13T06:48:29;108.65;;;40.10;;
66093;SDS011;52876;49.394;10.892;2023-02-13T06:50:55;105.13;;;36.78;;
66093;SDS011;52876;49.394;10.892;2023-02-13T06:53:21;83.20;;;35.10;;
66093;SDS011;52876;49.394;10.892;2023-02-13T06:55:51;114.30;;;39.83;;
66093;SDS011;52876;49.394;10.892;2023-02-13T06:58:18;98.70;;;33.63;;
66093;SDS011;52876;49.394;10.892;2023-02-13T07:00:46;97.38;;;37.83;;
66093;SDS011;52876;49.394;10.892;2023-02-13T07:03:12;78.55;;;34.90;;
66093;SDS011;52876;49.394;10.892;2023-02-13T07:05:39;84.13;;;33.55;;
66093;SDS011;52876;49.394;10.892;2023-02-13T07:08:06;52.80;;;29.85;;
66093;SDS011;52876;49.394;10.892;2023-02-13T07:10:35;75.82;;;32.60;;
66093;SDS011;52876;49.394;10.892;2023-02-13T07:13:02;57.23;;;31.87;;
66093;SDS011;52876;49.394;10.892;2023-02-13T07:15:30;46.95;;;26.90;;
66093;SDS011;52876;49.394;10.892;2023-02-13T07:17:56;36.70;;;23.77;;
66093;SDS011;52876;49.394;10.892;2023-02-13T07:20:24;38.27;;;26.37;;
66093;SDS011;52876;49.394;10.892;2023-02-13T07:22:50;29.30;;;21.37;;
66093;SDS011;52876;49.394;10.892;2023-02-13T07:25:18;34.90;;;23.90;;
66093;SDS011;52876;49.394;10.892;2023-02-13T07:27:45;80.60;;;48.73;;
66093;SDS011;52876;49.394;10.892;2023-02-13T07:30:13;70.40;;;45.20;;
66093;SDS011;52876;49.394;10.892;2023-02-13T07:32:40;64.97;;;38.70;;
66093;SDS011;52876;49.394;10.892;2023-02-13T07:35:06;42.73;;;30.10;;
66093;SDS011;52876;49.394;10.892;2023-02-13T07:37:34;40.77;;;27.00;;
66093;SDS011;52876;49.394;10.892;2023-02-13T07:40:00;37.90;;;24.67;;
66093;SDS011;52876;49.394;10.892;2023-02-13T07:42:28;38.40;;;24.00;;
66093;SDS011;52876;49.394;10.892;2023-02-13T07:44:54;31.30;;;20.50;;
66093;SDS011;52876;49.394;10.892;2023-02-13T07:47:22;45.83;;;27.33;;
66093;SDS011;52876;49.394;10.892;2023-02-13T07:49:48;44.43;;;26.57;;
66093;SDS011;52876;49.394;10.892;2023-02-13T07:52:16;45.13;;;27.97;;
66093;SDS011;52876;49.394;10.892;2023-02-13T07:54:42;40.37;;;24.67;;
66093;SDS011;52876;49.394;10.892;2023-02-13T07:57:10;50.87;;;27.73;;
66093;SDS011;52876;49.394;10.892;2023-02-13T07:59:36;42.93;;;25.10;;
66093;SDS011;52876;49.394;10.892;2023-02-13T08:02:07;39.40;;;22.90;;
66093;SDS011;52876;49.394;10.892;2023-02-13T08:04:37;37.43;;;22.40;;
66093;SDS011;52876;49.394;10.892;2023-02-13T08:07:04;36.23;;;24.00;;
66093;SDS011;52876;49.394;10.892;2023-02-13T08:09:30;41.63;;;22.63;;
66093;SDS011;52876;49.394;10.892;2023-02-13T08:11:56;40.13;;;25.73;;
66093;SDS011;52876;49.394;10.892;2023-02-13T08:14:22;32.93;;;23.40;;
66093;SDS011;52876;49.394;10.892;2023-02-13T08:16:53;33.87;;;23.13;;
66093;SDS011;52876;49.394;10.892;2023-02-13T08:19:19;31.17;;;22.57;;
66093;SDS011;52876;49.394;10.892;2023-02-13T08:21:48;28.07;;;20.20;;
66093;SDS011;52876;49.394;10.892;2023-02-13T08:24:14;26.50;;;19.73;;
66093;SDS011;52876;49.394;10.892;2023-02-13T08:26:41;23.63;;;19.33;;
66093;SDS011;52876;49.394;10.892;2023-02-13T08:29:07;22.67;;;19.90;;
66093;SDS011;52876;49.394;10.892;2023-02-13T08:31:35;25.87;;;20.40;;
66093;SDS011;52876;49.394;10.892;2023-02-13T08:34:01;28.10;;;21.93;;
66093;SDS011;52876;49.394;10.892;2023-02-13T08:36:27;24.83;;;20.33;;
66093;SDS011;52876;49.394;10.892;2023-02-13T08:38:55;22.13;;;18.53;;
66093;SDS011;52876;49.394;10.892;2023-02-13T08:41:22;20.97;;;17.97;;
66093;SDS011;52876;49.394;10.892;2023-02-13T08:43:48;21.73;;;18.87;;
66093;SDS011;52876;49.394;10.892;2023-02-13T08:46:14;28.70;;;23.80;;
66093;SDS011;52876;49.394;10.892;2023-02-13T08:48:40;25.33;;;21.20;;
66093;SDS011;52876;49.394;10.892;2023-02-13T08:51:09;34.03;;;25.90;;
66093;SDS011;52876;49.394;10.892;2023-02-13T08:53:39;20.40;;;17.37;;
66093;SDS011;52876;49.394;10.892;2023-02-13T08:56:08;23.30;;;18.20;;
66093;SDS011;52876;49.394;10.892;2023-02-13T08:58:35;25.20;;;21.30;;
66093;SDS011;52876;49.394;10.892;2023-02-13T09:01:03;25.40;;;19.13;;
66093;SDS011;52876;49.394;10.892;2023-02-13T09:03:29;24.20;;;20.30;;
66093;SDS011;52876;49.394;10.892;2023-02-13T09:05:58;22.60;;;18.37;;
66093;SDS011;52876;49.394;10.892;2023-02-13T09:08:27;22.50;;;17.40;;
66093;SDS011;52876;49.394;10.892;2023-02-13T09:10:55;21.97;;;17.37;;
66093;SDS011;52876;49.394;10.892;2023-02-13T09:13:24;25.60;;;20.93;;
66093;SDS011;52876;49.394;10.892;2023-02-13T09:15:50;23.63;;;18.60;;
66093;SDS011;52876;49.394;10.892;2023-02-13T09:18:16;21.80;;;18.00;;
66093;SDS011;52876;49.394;10.892;2023-02-13T09:20:53;24.83;;;19.23;;
66093;SDS011;52876;49.394;10.892;2023-02-13T09:23:22;23.77;;;19.57;;
66093;SDS011;52876;49.394;10.892;2023-02-13T09:25:50;19.20;;;16.40;;
66093;SDS011;52876;49.394;10.892;2023-02-13T09:28:16;24.90;;;18.60;;
66093;SDS011;52876;49.394;10.892;2023-02-13T09:30:44;25.40;;;18.60;;
66093;SDS011;52876;49.394;10.892;2023-02-13T09:33:14;22.80;;;17.83;;
66093;SDS011;52876;49.394;10.892;2023-02-13T09:35:42;25.23;;;19.20;;
66093;SDS011;52876;49.394;10.892;2023-02-13T09:38:07;24.83;;;20.90;;
66093;SDS011;52876;49.394;10.892;2023-02-13T09:40:35;24.27;;;18.67;;
66093;SDS011;52876;49.394;10.892;2023-02-13T09:43:10;28.50;;;20.40;;
66093;SDS011;52876;49.394;10.892;2023-02-13T09:45:39;24.23;;;19.30;;
66093;SDS011;52876;49.394;10.892;2023-02-13T09:48:09;26.80;;;20.80;;
66093;SDS011;52876;49.394;10.892;2023-02-13T09:50:38;25.40;;;20.50;;
66093;SDS011;52876;49.394;10.892;2023-02-13T09:53:05;25.10;;;19.53;;
66093;SDS011;52876;49.394;10.892;2023-02-13T09:55:34;27.83;;;22.17;;
66093;SDS011;52876;49.394;10.892;2023-02-13T09:58:08;25.20;;;20.27;;
66093;SDS011;52876;49.394;10.892;2023-02-13T10:00:42;24.77;;;18.07;;
66093;SDS011;52876;49.394;10.892;2023-02-13T10:03:19;23.90;;;20.10;;
66093;SDS011;52876;49.394;10.892;2023-02-13T10:05:55;46.40;;;36.37;;
66093;SDS011;52876;49.394;10.892;2023-02-13T10:08:33;25.27;;;20.70;;
66093;SDS011;52876;49.394;10.892;2023-02-13T10:11:31;26.70;;;20.33;;
66093;SDS011;52876;49.394;10.892;2023-02-13T10:14:23;27.60;;;21.73;;
66093;SDS011;52876;49.394;10.892;2023-02-13T10:16:59;25.37;;;21.60;;
66093;SDS011;52876;49.394;10.892;2023-02-13T10:19:40;26.20;;;20.60;;
66093;SDS011;52876;49.394;10.892;2023-02-13T10:22:09;23.33;;;19.73;;
66093;SDS011;52876;49.394;10.892;2023-02-13T10:24:39;25.97;;;19.03;;
66093;SDS011;52876;49.394;10.892;2023-02-13T10:27:12;25.63;;;20.73;;
66093;SDS011;52876;49.394;10.892;2023-02-13T10:29:44;23.57;;;19.73;;
66093;SDS011;52876;49.394;10.892;2023-02-13T10:32:15;23.10;;;20.00;;
66093;SDS011;52876;49.394;10.892;2023-02-13T10:34:48;25.80;;;21.70;;
66093;SDS011;52876;49.394;10.892;2023-02-13T10:37:18;22.53;;;19.07;;
66093;SDS011;52876;49.394;10.892;2023-02-13T10:39:45;23.87;;;19.90;;
66093;SDS011;52876;49.394;10.892;2023-02-13T10:42:15;23.90;;;19.67;;
66093;SDS011;52876;49.394;10.892;2023-02-13T10:44:48;21.33;;;17.40;;
66093;SDS011;52876;49.394;10.892;2023-02-13T10:47:25;25.53;;;19.33;;
66093;SDS011;52876;49.394;10.892;2023-02-13T10:50:11;23.53;;;18.03;;
66093;SDS011;52876;49.394;10.892;2023-02-13T10:52:49;20.87;;;18.00;;
66093;SDS011;52876;49.394;10.892;2023-02-13T10:55:27;20.30;;;17.67;;
66093;SDS011;52876;49.394;10.892;2023-02-13T10:58:11;23.80;;;19.73;;
66093;SDS011;52876;49.394;10.892;2023-02-13T11:00:43;21.70;;;18.80;;
66093;SDS011;52876;49.394;10.892;2023-02-13T11:03:14;25.43;;;20.70;;
66093;SDS011;52876;49.394;10.892;2023-02-13T11:05:44;21.00;;;17.67;;
66093;SDS011;52876;49.394;10.892;2023-02-13T11:08:12;25.57;;;20.00;;
66093;SDS011;52876;49.394;10.892;2023-02-13T11:10:44;32.63;;;22.30;;
66093;SDS011;52876;49.394;10.892;2023-02-13T11:13:17;24.63;;;19.37;;
66093;SDS011;52876;49.394;10.892;2023-02-13T11:15:56;28.97;;;22.07;;
66093;SDS011;52876;49.394;10.892;2023-02-13T11:18:25;29.93;;;22.57;;
66093;SDS011;52876;49.394;10.892;2023-02-13T11:21:02;29.90;;;21.37;;
66093;SDS011;52876;49.394;10.892;2023-02-13T11:23:36;34.27;;;23.83;;
66093;SDS011;52876;49.394;10.892;2023-02-13T11:26:05;28.57;;;21.63;;
66093;SDS011;52876;49.394;10.892;2023-02-13T11:28:33;35.90;;;23.80;;
66093;SDS011;52876;49.394;10.892;2023-02-13T11:31:08;38.83;;;24.97;;
66093;SDS011;52876;49.394;10.892;2023-02-13T11:33:36;50.30;;;28.23;;
66093;SDS011;52876;49.394;10.892;2023-02-13T11:36:07;38.13;;;23.73;;
66093;SDS011;52876;49.394;10.892;2023-02-13T11:38:34;58.27;;;28.03;;
66093;SDS011;52876;49.394;10.892;2023-02-13T11:41:04;39.23;;;24.23;;
66093;SDS011;52876;49.394;10.892;2023-02-13T11:43:33;48.80;;;28.03;;
66093;SDS011;52876;49.394;10.892;2023-02-13T11:46:02;29.80;;;22.00;;
66093;SDS011;52876;49.394;10.892;2023-02-13T11:48:30;31.70;;;23.13;;
66093;SDS011;52876;49.394;10.892;2023-02-13T11:50:56;33.43;;;22.27;;
66093;SDS011;52876;49.394;10.892;2023-02-13T11:53:24;35.87;;;23.37;;
66093;SDS011;52876;49.394;10.892;2023-02-13T11:56:01;40.10;;;22.70;;
66093;SDS011;52876;49.394;10.892;2023-02-13T11:58:29;34.20;;;22.00;;
66093;SDS011;52876;49.394;10.892;2023-02-13T12:04:00;36.63;;;23.10;;
66093;SDS011;52876;49.394;10.892;2023-02-13T12:06:33;43.33;;;22.67;;
66093;SDS011;52876;49.394;10.892;2023-02-13T12:09:00;40.37;;;19.53;;
66093;SDS011;52876;49.394;10.892;2023-02-13T12:11:30;29.63;;;13.27;;
66093;SDS011;52876;49.394;10.892;2023-02-13T12:13:59;34.50;;;14.50;;
66093;SDS011;52876;49.394;10.892;2023-02-13T12:16:27;24.40;;;12.97;;
66093;SDS011;52876;49.394;10.892;2023-02-13T12:18:57;32.63;;;14.90;;
66093;SDS011;52876;49.394;10.892;2023-02-13T12:21:29;24.90;;;12.47;;
66093;SDS011;52876;49.394;10.892;2023-02-13T12:24:02;42.13;;;17.23;;
66093;SDS011;52876;49.394;10.892;2023-02-13T12:26:33;21.63;;;11.60;;
66093;SDS011;52876;49.394;10.892;2023-02-13T12:31:53;20.77;;;12.47;;
66093;SDS011;52876;49.394;10.892;2023-02-13T12:37:26;15.37;;;12.03;;
66093;SDS011;52876;49.394;10.892;2023-02-13T12:40:22;12.40;;;11.10;;
66093;SDS011;52876;49.394;10.892;2023-02-13T12:43:09;14.80;;;11.50;;
66093;SDS011;52876;49.394;10.892;2023-02-13T12:45:45;18.60;;;14.30;;
66093;SDS011;52876;49.394;10.892;2023-02-13T12:48:20;13.70;;;11.20;;
66093;SDS011;52876;49.394;10.892;2023-02-13T13:58:46;25.50;;;15.10;;
66093;SDS011;52876;49.394;10.892;2023-02-13T14:01:19;8.20;;;7.40;;
66093;SDS011;52876;49.394;10.892;2023-02-13T14:07:13;7.27;;;6.63;;
66093;SDS011;52876;49.394;10.892;2023-02-13T14:10:11;5.73;;;5.27;;
66093;SDS011;52876;49.394;10.892;2023-02-13T14:13:03;8.40;;;7.60;;
66093;SDS011;52876;49.394;10.892;2023-02-13T14:15:50;6.47;;;5.97;;
66093;SDS011;52876;49.394;10.892;2023-02-13T14:18:18;7.47;;;6.77;;
66093;SDS011;52876;49.394;10.892;2023-02-13T14:20:49;7.60;;;6.90;;
66093;SDS011;52876;49.394;10.892;2023-02-13T14:26:09;8.23;;;7.23;;
66093;SDS011;52876;49.394;10.892;2023-02-13T14:28:54;10.23;;;9.07;;
66093;SDS011;52876;49.394;10.892;2023-02-13T14:31:25;7.20;;;6.50;;
66093;SDS011;52876;49.394;10.892;2023-02-13T14:33:54;8.67;;;6.70;;
66093;SDS011;52876;49.394;10.892;2023-02-13T14:36:21;10.63;;;7.70;;
66093;SDS011;52876;49.394;10.892;2023-02-13T14:38:53;7.13;;;6.43;;
66093;SDS011;52876;49.394;10.892;2023-02-13T14:44:22;7.33;;;6.53;;
66093;SDS011;52876;49.394;10.892;2023-02-13T14:46:53;9.30;;;7.23;;
66093;SDS011;52876;49.394;10.892;2023-02-13T14:49:21;6.57;;;5.90;;
66093;SDS011;52876;49.394;10.892;2023-02-13T14:51:52;7.27;;;6.57;;
66093;SDS011;52876;49.394;10.892;2023-02-13T14:54:23;7.43;;;6.80;;
66093;SDS011;52876;49.394;10.892;2023-02-13T14:56:52;8.33;;;6.80;;
66093;SDS011;52876;49.394;10.892;2023-02-13T14:59:24;9.37;;;8.37;;
66093;SDS011;52876;49.394;10.892;2023-02-13T15:01:56;8.30;;;7.50;;
66093;SDS011;52876;49.394;10.892;2023-02-13T15:04:25;8.83;;;7.70;;
66093;SDS011;52876;49.394;10.892;2023-02-13T15:06:54;10.80;;;9.70;;
66093;SDS011;52876;49.394;10.892;2023-02-13T15:09:26;7.27;;;6.57;;
66093;SDS011;52876;49.394;10.892;2023-02-13T15:11:58;9.40;;;7.80;;
66093;SDS011;52876;49.394;10.892;2023-02-13T15:14:27;9.57;;;7.83;;
66093;SDS011;52876;49.394;10.892;2023-02-13T15:16:58;11.23;;;10.10;;
66093;SDS011;52876;49.394;10.892;2023-02-13T15:19:28;12.50;;;9.50;;
66093;SDS011;52876;49.394;10.892;2023-02-13T15:21:55;7.40;;;6.80;;
66093;SDS011;52876;49.394;10.892;2023-02-13T15:24:23;8.27;;;7.47;;
66093;SDS011;52876;49.394;10.892;2023-02-13T15:26:50;15.33;;;7.50;;
66093;SDS011;52876;49.394;10.892;2023-02-13T15:29:19;8.03;;;7.23;;
66093;SDS011;52876;49.394;10.892;2023-02-13T15:31:47;9.03;;;6.63;;
66093;SDS011;52876;49.394;10.892;2023-02-13T15:34:21;6.57;;;5.97;;
66093;SDS011;52876;49.394;10.892;2023-02-13T15:36:50;7.20;;;6.50;;
66093;SDS011;52876;49.394;10.892;2023-02-13T15:39:18;8.60;;;5.70;;
66093;SDS011;52876;49.394;10.892;2023-02-13T15:41:47;6.47;;;5.87;;
66093;SDS011;52876;49.394;10.892;2023-02-13T15:44:16;6.80;;;6.20;;
66093;SDS011;52876;49.394;10.892;2023-02-13T15:46:45;7.17;;;6.53;;
66093;SDS011;52876;49.394;10.892;2023-02-13T15:49:13;7.30;;;6.60;;
66093;SDS011;52876;49.394;10.892;2023-02-13T15:51:42;6.03;;;5.53;;
66093;SDS011;52876;49.394;10.892;2023-02-13T15:54:20;7.57;;;6.93;;
66093;SDS011;52876;49.394;10.892;2023-02-13T15:56:48;8.30;;;7.40;;